Time;durP1;ratioP1;P1;durP2;ratioP2;P2;SDS_P1;SDS_P2;PMS_P1;PMS_P2;Temp;Humidity;BMP_temperature;BMP_pressure;BME280_temperature;BME280_humidity;BME280_pressure;Samples;Min_cycle;Max_cycle;Signal;HPM_P1;HPM_P2
2023/09/01 00:02:16;;;;;;;27.13;16.75;;;;;;;20.22;54.06;100142.77;1803737;79;21876;-55
2023/09/01 00:05:24;;;;;;;31.55;16.93;;;;;;;20.20;54.08;100151.89;1803727;79;21892;-55
2023/09/01 00:08:31;;;;;;;27.87;16.27;;;;;;;20.18;54.01;100146.29;1803664;79;21359;-56
2023/09/01 00:11:37;;;;;;;31.57;16.62;;;;;;;20.17;53.92;100146.00;1803828;79;21852;-56
2023/09/01 00:14:44;;;;;;;25.62;17.23;;;;;;;20.14;53.95;100158.97;1803331;79;21884;-55
2023/09/01 00:17:51;;;;;;;25.45;17.32;;;;;;;20.11;53.85;100140.83;1803671;79;21397;-54
2023/09/01 00:20:57;;;;;;;28.23;16.75;;;;;;;20.07;53.73;100138.78;1805337;79;21328;-55
2023/09/01 00:24:03;;;;;;;25.55;16.73;;;;;;;20.01;53.71;100136.98;1803671;79;21355;-55
2023/09/01 00:27:09;;;;;;;26.20;16.42;;;;;;;19.96;53.67;100142.42;1803703;78;21458;-56
2023/09/01 00:30:16;;;;;;;26.82;17.10;;;;;;;19.91;53.65;100142.30;1803715;79;21350;-56
2023/09/01 00:33:25;;;;;;;26.82;17.52;;;;;;;19.88;53.76;100138.61;1803707;79;21359;-55
2023/09/01 00:36:30;;;;;;;25.12;17.07;;;;;;;19.85;53.72;100142.70;1803758;79;21940;-56
2023/09/01 00:39:36;;;;;;;26.55;17.02;;;;;;;19.83;53.73;100142.12;1803675;79;21884;-55
2023/09/01 00:42:43;;;;;;;26.93;17.82;;;;;;;19.82;53.78;100143.19;1803708;79;21855;-54
2023/09/01 00:45:49;;;;;;;29.37;18.82;;;;;;;19.84;53.85;100139.63;1804112;78;21417;-55
2023/09/01 00:48:54;;;;;;;36.23;24.60;;;;;;;19.82;53.79;100138.20;1803672;79;21360;-55
2023/09/01 00:52:00;;;;;;;50.63;26.23;;;;;;;19.82;53.80;100140.97;1803755;79;21406;-56
2023/09/01 00:55:06;;;;;;;47.10;26.15;;;;;;;19.77;53.75;100133.38;1803641;79;21366;-56
2023/09/01 00:58:13;;;;;;;43.33;23.42;;;;;;;19.75;53.75;100132.76;1803254;79;21347;-56
2023/09/01 01:01:20;;;;;;;39.88;23.55;;;;;;;19.74;53.79;100131.61;1803668;78;21339;-56
2023/09/01 01:04:26;;;;;;;31.27;21.52;;;;;;;19.71;53.81;100139.86;1803703;79;21848;-56
2023/09/01 01:07:46;;;;;;;35.95;20.70;;;;;;;19.71;53.89;100141.81;1803799;79;21367;-56
2023/09/01 01:10:56;;;;;;;33.63;19.85;;;;;;;19.66;53.84;100135.59;1803744;79;21383;-56
2023/09/01 01:14:02;;;;;;;32.42;19.92;;;;;;;19.62;53.81;100134.91;1803645;79;21359;-55
2023/09/01 01:17:07;;;;;;;32.20;20.55;;;;;;;19.59;53.89;100133.47;1803668;79;21370;-56
2023/09/01 01:20:19;;;;;;;34.45;20.45;;;;;;;19.57;53.94;100140.36;1803700;79;21367;-56
2023/09/01 01:23:24;;;;;;;31.37;19.23;;;;;;;19.54;53.97;100135.26;1794640;79;21373;-56
2023/09/01 01:26:29;;;;;;;29.37;18.50;;;;;;;19.51;54.02;100139.38;1785882;79;21343;-56
2023/09/01 01:29:36;;;;;;;25.50;16.67;;;;;;;19.49;54.10;100143.48;1803750;79;21335;-56
2023/09/01 01:32:43;;;;;;;32.15;18.52;;;;;;;19.47;54.25;100133.16;1803579;79;21454;-56
2023/09/01 01:35:59;;;;;;;30.65;18.50;;;;;;;19.46;54.37;100137.85;1803740;79;21999;-56
2023/09/01 01:39:22;;;;;;;23.47;17.15;;;;;;;19.46;54.53;100130.91;1803635;79;21880;-56
2023/09/01 01:42:28;;;;;;;27.67;16.75;;;;;;;19.49;54.70;100140.15;1803782;79;21342;-56
2023/09/01 01:45:35;;;;;;;30.50;18.00;;;;;;;19.51;54.87;100141.30;1803582;79;21355;-56
2023/09/01 01:48:44;;;;;;;30.77;17.87;;;;;;;19.51;54.89;100139.91;1803641;79;21394;-56
2023/09/01 01:51:51;;;;;;;27.48;17.40;;;;;;;19.50;55.01;100145.16;1803722;79;21382;-56
2023/09/01 01:54:56;;;;;;;26.77;17.82;;;;;;;19.50;55.11;100136.84;1803691;79;21415;-54
2023/09/01 01:58:05;;;;;;;27.20;16.50;;;;;;;19.51;55.24;100139.38;1803749;79;21857;-55
2023/09/01 02:01:13;;;;;;;26.40;16.87;;;;;;;19.53;55.42;100141.91;1777390;77;21338;-54
2023/09/01 02:04:21;;;;;;;30.90;16.57;;;;;;;19.55;55.55;100148.08;1765494;81;21176;-55
2023/09/01 02:07:26;;;;;;;23.32;17.07;;;;;;;19.56;55.70;100141.42;1765959;81;21342;-55
2023/09/01 02:10:32;;;;;;;25.62;16.70;;;;;;;19.58;55.82;100151.23;1765600;81;21562;-56
2023/09/01 02:13:37;;;;;;;27.45;17.12;;;;;;;19.60;55.93;100146.25;1765613;81;21240;-55
2023/09/01 02:16:44;;;;;;;26.02;16.75;;;;;;;19.62;56.04;100146.02;1765790;81;21212;-55
2023/09/01 02:19:49;;;;;;;25.80;16.48;;;;;;;19.65;56.16;100152.48;1765929;81;21188;-56
2023/09/01 02:22:57;;;;;;;27.50;16.65;;;;;;;19.66;56.28;100150.88;1765664;81;21219;-55
2023/09/01 02:26:04;;;;;;;24.25;17.12;;;;;;;19.69;56.40;100150.92;1765493;81;21204;-56
2023/09/01 02:29:11;;;;;;;26.25;16.77;;;;;;;19.72;56.57;100144.88;1765524;79;21677;-54
2023/09/01 02:32:18;;;;;;;29.40;17.20;;;;;;;19.74;56.63;100144.11;1765662;81;21176;-55
2023/09/01 02:35:25;;;;;;;28.15;17.00;;;;;;;19.75;56.77;100144.40;1765696;80;21288;-55
2023/09/01 02:38:30;;;;;;;28.77;19.35;;;;;;;19.77;56.85;100137.53;1765662;81;21299;-55
2023/09/01 02:41:37;;;;;;;22.95;16.57;;;;;;;19.77;56.92;100137.53;1765600;81;21200;-55
2023/09/01 02:44:44;;;;;;;29.52;17.37;;;;;;;19.79;57.01;100145.63;1765707;81;21189;-55
2023/09/01 02:47:50;;;;;;;27.82;16.93;;;;;;;19.80;57.14;100147.30;1765730;81;21470;-55
2023/09/01 02:50:56;;;;;;;25.62;17.25;;;;;;;19.82;57.33;100157.64;1765627;81;21883;-55
2023/09/01 02:54:04;;;;;;;27.98;18.42;;;;;;;19.86;57.55;100158.30;1765900;81;21203;-55
2023/09/01 02:57:12;;;;;;;26.75;17.67;;;;;;;19.89;57.70;100161.12;1765704;81;21203;-55
2023/09/01 03:00:18;;;;;;;23.00;17.15;;;;;;;19.92;57.86;100167.59;1765748;81;21279;-55
2023/09/01 03:03:24;;;;;;;27.52;17.17;;;;;;;19.94;58.02;100169.05;1803623;79;21358;-55
2023/09/01 03:06:30;;;;;;;35.23;17.77;;;;;;;19.98;58.13;100168.03;1803814;79;21872;-55
2023/09/01 03:09:38;;;;;;;30.20;18.27;;;;;;;20.01;58.28;100171.72;1803373;79;21375;-54
2023/09/01 03:12:45;;;;;;;29.60;18.10;;;;;;;20.04;58.36;100165.67;1803711;79;21346;-55
2023/09/01 03:15:50;;;;;;;26.23;18.02;;;;;;;20.06;58.50;100162.11;1803796;79;21367;-55
2023/09/01 03:18:59;;;;;;;27.00;18.07;;;;;;;20.09;58.64;100160.23;1803713;79;21876;-54
2023/09/01 03:22:05;;;;;;;28.98;18.80;;;;;;;20.10;58.77;100164.16;1803909;79;21339;-55
2023/09/01 03:25:17;;;;;;;28.62;18.32;;;;;;;20.14;58.84;100172.87;1803827;78;21334;-55
2023/09/01 03:28:23;;;;;;;27.58;18.37;;;;;;;20.15;58.92;100173.19;1801791;79;21367;-56
2023/09/01 03:31:31;;;;;;;33.02;18.37;;;;;;;20.15;58.99;100174.02;1801620;79;21446;-55
2023/09/01 03:34:37;;;;;;;33.00;18.95;;;;;;;20.19;59.14;100178.55;1801907;79;21798;-55
2023/09/01 03:37:46;;;;;;;28.47;18.05;;;;;;;20.20;59.18;100173.31;1801948;79;21810;-55
2023/09/01 03:40:53;;;;;;;30.57;20.23;;;;;;;20.23;59.32;100177.81;1801833;79;21343;-55
2023/09/01 03:43:59;;;;;;;33.90;18.92;;;;;;;20.30;59.45;100174.91;1801290;79;21348;-55
2023/09/01 03:47:04;;;;;;;31.55;21.12;;;;;;;20.36;59.62;100178.13;1801164;79;21331;-55
2023/09/01 03:50:09;;;;;;;34.75;21.82;;;;;;;20.43;59.75;100178.83;1801678;79;21319;-54
2023/09/01 03:53:15;;;;;;;33.78;19.45;;;;;;;20.51;59.85;100179.30;1800916;79;21335;-55
2023/09/01 03:56:24;;;;;;;31.95;19.10;;;;;;;20.58;59.92;100172.22;1801285;79;21363;-54
2023/09/01 03:59:30;;;;;;;30.15;19.92;;;;;;;20.68;60.06;100172.41;1802008;79;21881;-55
2023/09/01 04:02:36;;;;;;;30.72;18.55;;;;;;;20.77;60.18;100168.17;1800193;79;21356;-54
2023/09/01 04:05:35;;;;;;;27.85;19.12;;;;;;;20.87;60.31;100183.66;1802095;79;21319;-55
2023/09/01 04:08:28;;;;;;;28.25;19.85;;;;;;;20.95;60.36;100176.88;1801975;79;21417;-54
2023/09/01 04:11:15;;;;;;;27.85;18.37;;;;;;;21.02;60.38;100170.09;1801998;79;21870;-55
2023/09/01 04:14:11;;;;;;;29.12;17.67;;;;;;;21.10;60.46;100179.98;1801800;79;21375;-54
2023/09/01 04:17:17;;;;;;;26.05;18.55;;;;;;;21.19;60.54;100182.11;1801365;78;21411;-54
2023/09/01 04:20:22;;;;;;;28.47;18.48;;;;;;;21.30;60.64;100177.56;1803280;78;21319;-54
2023/09/01 04:23:31;;;;;;;26.17;18.70;;;;;;;21.43;60.72;100168.36;1749267;81;21271;-54
2023/09/01 04:26:38;;;;;;;23.18;18.20;;;;;;;21.56;60.77;100158.30;1752230;81;21217;-55
2023/09/01 04:29:43;;;;;;;27.60;19.37;;;;;;;21.68;60.80;100154.86;1751771;82;21234;-55
2023/09/01 04:32:53;;;;;;;32.53;19.32;;;;;;;21.78;60.81;100162.05;1751412;81;21217;-55
2023/09/01 04:36:10;;;;;;;22.58;17.77;;;;;;;21.85;60.82;100164.09;1736031;82;21205;-55
2023/09/01 04:39:16;;;;;;;29.90;19.67;;;;;;;21.90;60.87;100153.02;1801733;79;21721;-57
2023/09/01 04:42:23;;;;;;;30.32;19.92;;;;;;;21.92;60.89;100173.13;1803628;78;21798;-55
2023/09/01 04:45:29;;;;;;;27.40;21.00;;;;;;;21.97;61.02;100169.03;1813732;78;21331;-55
2023/09/01 04:48:37;;;;;;;36.03;20.85;;;;;;;22.02;61.12;100167.70;1809946;78;21652;-55
2023/09/01 04:51:43;;;;;;;29.18;19.98;;;;;;;22.03;61.23;100166.62;1802028;79;21331;-56
2023/09/01 04:54:48;;;;;;;25.08;19.92;;;;;;;22.09;61.34;100163.34;1815902;78;21367;-56
2023/09/01 04:57:52;;;;;;;43.73;21.15;;;;;;;22.14;61.48;100176.82;1801231;79;21837;-56
2023/09/01 05:01:00;;;;;;;39.27;21.52;;;;;;;22.20;61.60;100173.00;1800867;78;21372;-55
2023/09/01 05:04:07;;;;;;;47.30;20.82;;;;;;;22.28;61.75;100187.62;1801145;78;21350;-49
2023/09/01 05:07:13;;;;;;;37.38;21.65;;;;;;;22.35;61.89;100184.08;1802791;79;21884;-49
2023/09/01 05:10:19;;;;;;;31.55;20.70;;;;;;;22.44;61.98;100196.52;1803266;78;21181;-50
2023/09/01 05:13:27;;;;;;;30.88;21.95;;;;;;;22.51;62.13;100194.36;1804818;78;21358;-50
2023/09/01 05:16:33;;;;;;;33.13;20.45;;;;;;;22.60;62.25;100202.59;1808213;78;21358;-50
2023/09/01 05:19:44;;;;;;;33.58;20.37;;;;;;;22.67;62.33;100212.50;1807880;78;21558;-50
2023/09/01 05:22:51;;;;;;;30.40;20.20;;;;;;;22.74;62.42;100222.08;1742348;81;21325;-50
2023/09/01 05:26:01;;;;;;;25.48;20.05;;;;;;;22.78;62.45;100226.02;1735906;81;21260;-50
2023/09/01 05:29:06;;;;;;;27.52;19.23;;;;;;;22.81;62.50;100238.92;1754139;81;21220;-50
2023/09/01 05:32:11;;;;;;;27.05;19.70;;;;;;;22.83;62.57;100234.47;1755937;81;21220;-50
2023/09/01 05:35:19;;;;;;;27.90;21.10;;;;;;;22.87;62.66;100235.08;1716783;81;21372;-49
2023/09/01 05:38:26;;;;;;;40.70;30.95;;;;;;;22.92;62.76;100235.70;1732377;81;21206;-49
2023/09/01 05:41:34;;;;;;;35.48;21.90;;;;;;;22.94;62.81;100225.12;1752140;80;21741;-47
2023/09/01 05:44:44;;;;;;;30.12;20.08;;;;;;;22.97;62.91;100234.38;1771499;79;21232;-49
2023/09/01 05:47:52;;;;;;;35.08;20.65;;;;;;;23.00;62.97;100246.41;1737057;81;21277;-48
2023/09/01 05:50:59;;;;;;;33.05;20.68;;;;;;;23.03;62.97;100243.09;1817258;78;21224;-49
2023/09/01 05:54:08;;;;;;;26.35;20.08;;;;;;;23.05;63.07;100243.69;1805163;78;21406;-50
2023/09/01 05:57:14;;;;;;;30.75;19.20;;;;;;;23.09;63.08;100254.62;1804796;78;21366;-50
2023/09/01 06:00:24;;;;;;;26.07;19.23;;;;;;;23.12;63.14;100248.53;1804082;78;21216;-50
2023/09/01 06:03:33;;;;;;;28.20;18.85;;;;;;;23.16;63.22;100243.56;1786175;77;21596;-49
2023/09/01 06:06:41;;;;;;;27.22;19.15;;;;;;;23.19;63.23;100244.44;1766685;79;21168;-49
2023/09/01 06:09:47;;;;;;;30.62;20.15;;;;;;;23.22;63.25;100252.83;1789481;78;21196;-48
2023/09/01 06:12:53;;;;;;;28.17;18.95;;;;;;;23.22;63.25;100238.86;1794263;78;21737;-48
2023/09/01 06:16:00;;;;;;;30.02;20.60;;;;;;;23.22;63.27;100245.84;1789613;79;21721;-48
2023/09/01 06:19:07;;;;;;;30.20;21.33;;;;;;;23.23;63.32;100246.16;1792438;79;21251;-49
2023/09/01 06:22:13;;;;;;;33.18;20.52;;;;;;;23.25;63.39;100245.32;1791172;79;21250;-48
2023/09/01 06:25:19;;;;;;;30.23;19.65;;;;;;;23.26;63.38;100244.27;1798046;78;21284;-49
2023/09/01 06:28:26;;;;;;;33.45;22.10;;;;;;;23.29;63.40;100254.91;1762718;80;21232;-49
2023/09/01 06:31:33;;;;;;;28.70;19.67;;;;;;;23.31;63.48;100263.85;1764146;78;21511;-49
2023/09/01 06:34:40;;;;;;;28.17;20.10;;;;;;;23.39;63.52;100261.99;1774072;80;21530;-48
2023/09/01 06:37:45;;;;;;;30.08;20.95;;;;;;;23.43;63.56;100261.23;1780727;80;21335;-48
2023/09/01 06:40:52;;;;;;;27.40;19.92;;;;;;;23.48;63.56;100261.27;1783824;79;21217;-48
2023/09/01 06:44:00;;;;;;;30.32;20.25;;;;;;;23.54;63.61;100271.95;1727798;83;21442;-49
2023/09/01 06:47:05;;;;;;;26.90;20.20;;;;;;;23.63;63.63;100271.23;1790335;79;21163;-50
2023/09/01 06:50:10;;;;;;;26.40;19.82;;;;;;;23.74;63.66;100267.97;1796152;80;21243;-49
2023/09/01 06:53:15;;;;;;;28.87;19.70;;;;;;;23.88;63.62;100261.41;1789121;78;21275;-50
2023/09/01 06:56:20;;;;;;;26.23;19.75;;;;;;;24.01;63.59;100270.77;1795022;79;21366;-50
2023/09/01 06:59:27;;;;;;;30.65;19.73;;;;;;;24.11;63.46;100273.12;1736732;81;21217;-50
2023/09/01 07:02:35;;;;;;;30.92;20.05;;;;;;;24.17;63.36;100270.64;1794910;79;21617;-49
2023/09/01 07:05:40;;;;;;;31.52;19.98;;;;;;;24.20;63.25;100256.66;1798282;78;21239;-50
2023/09/01 07:08:45;;;;;;;29.35;17.77;;;;;;;24.25;63.23;100259.50;1801580;78;21601;-50
2023/09/01 07:11:52;;;;;;;29.37;18.73;;;;;;;24.28;63.10;100267.36;1802498;78;21398;-51
2023/09/01 07:14:57;;;;;;;35.70;19.15;;;;;;;24.30;63.08;100270.20;1803043;77;21320;-51
2023/09/01 07:18:03;;;;;;;27.82;15.90;;;;;;;24.28;62.97;100276.61;1802550;79;21362;-51
2023/09/01 07:21:10;;;;;;;25.60;14.50;;;;;;;24.28;62.87;100271.55;1803029;79;21755;-51
2023/09/01 07:24:16;;;;;;;19.87;13.62;;;;;;;24.30;62.76;100279.14;1802040;78;21192;-50
2023/09/01 07:27:21;;;;;;;23.67;12.98;;;;;;;24.30;62.65;100266.55;1803694;78;21747;-51
2023/09/01 07:30:28;;;;;;;24.50;13.88;;;;;;;24.30;62.53;100268.80;1800001;79;21990;-50
2023/09/01 07:33:36;;;;;;;36.10;19.52;;;;;;;24.31;62.34;100274.67;1825262;78;21706;-47
2023/09/01 07:36:41;;;;;;;33.95;20.10;;;;;;;24.30;62.15;100275.80;1816496;78;21714;-48
2023/09/01 07:39:47;;;;;;;40.03;21.77;;;;;;;24.28;61.92;100278.01;1800812;78;21371;-48
2023/09/01 07:42:54;;;;;;;29.20;15.38;;;;;;;24.28;61.83;100282.75;1804209;78;21267;-48
2023/09/01 07:46:00;;;;;;;21.07;13.85;;;;;;;24.35;61.78;100281.44;1801441;78;21374;-47
2023/09/01 07:49:05;;;;;;;25.75;14.78;;;;;;;24.41;61.58;100283.16;1808512;78;21318;-49
2023/09/01 07:52:14;;;;;;;25.80;15.85;;;;;;;24.48;61.41;100281.53;1805651;78;21355;-50
2023/09/01 07:55:20;;;;;;;29.40;15.08;;;;;;;24.52;61.17;100278.46;1790339;78;21267;-48
2023/09/01 07:58:25;;;;;;;25.52;14.75;;;;;;;24.54;60.98;100283.24;1792948;79;21486;-52
2023/09/01 08:01:30;;;;;;;24.92;16.37;;;;;;;24.57;60.84;100277.10;1807272;78;21548;-52
2023/09/01 08:04:35;;;;;;;24.07;15.55;;;;;;;24.57;60.66;100284.95;1805586;78;21196;-52
2023/09/01 08:07:43;;;;;;;23.32;15.15;;;;;;;24.58;60.51;100289.98;1798535;78;21531;-52
2023/09/01 08:10:52;;;;;;;29.30;16.12;;;;;;;24.56;60.35;100276.25;1732180;81;21197;-51
2023/09/01 08:14:00;;;;;;;31.97;15.60;;;;;;;24.63;60.35;100274.07;1798843;78;21208;-51
2023/09/01 08:17:05;;;;;;;21.80;14.38;;;;;;;24.75;60.33;100274.72;1806755;78;21228;-52
2023/09/01 08:20:12;;;;;;;23.83;14.95;;;;;;;24.83;60.17;100274.22;1812002;78;21719;-52
2023/09/01 08:23:21;;;;;;;24.75;14.55;;;;;;;24.94;60.07;100287.16;1779877;80;21606;-52
2023/09/01 08:26:27;;;;;;;22.02;13.93;;;;;;;25.06;59.98;100289.75;1718628;81;21223;-49
2023/09/01 08:29:39;;;;;;;27.22;13.98;;;;;;;25.17;59.81;100284.48;1798054;78;21327;-51
2023/09/01 08:32:49;;;;;;;22.77;14.00;;;;;;;25.31;59.65;100297.45;1801318;78;21220;-50
2023/09/01 08:35:54;;;;;;;20.52;13.93;;;;;;;25.42;59.46;100290.21;1746146;80;21944;-50
2023/09/01 08:38:59;;;;;;;20.80;14.68;;;;;;;25.47;59.20;100291.64;1800013;78;21758;-50
2023/09/01 08:42:06;;;;;;;22.82;13.53;;;;;;;25.54;59.03;100294.19;1797317;78;21824;-50
2023/09/01 08:45:12;;;;;;;22.42;14.53;;;;;;;25.59;58.81;100306.83;1798661;78;22018;-49
2023/09/01 08:48:18;;;;;;;21.77;13.83;;;;;;;25.64;58.67;100299.25;1809414;78;21402;-49
2023/09/01 08:51:24;;;;;;;21.93;14.13;;;;;;;25.66;58.40;100298.42;1797152;79;21342;-52
2023/09/01 08:54:31;;;;;;;23.18;13.90;;;;;;;25.72;58.33;100301.52;1784674;78;21204;-49
2023/09/01 08:57:38;;;;;;;24.07;14.55;;;;;;;25.78;58.12;100307.41;1805094;78;21177;-51
2023/09/01 09:00:46;;;;;;;22.90;14.43;;;;;;;25.83;57.99;100305.20;1733750;81;21565;-52
2023/09/01 09:03:56;;;;;;;25.37;14.00;;;;;;;25.91;57.92;100306.89;1801787;78;21216;-52
2023/09/01 09:07:03;;;;;;;23.25;14.03;;;;;;;26.03;57.83;100305.27;1796709;78;21760;-53
2023/09/01 09:10:10;;;;;;;20.40;13.40;;;;;;;26.12;57.71;100296.02;1804566;78;21176;-54
2023/09/01 09:13:35;;;;;;;23.32;13.90;;;;;;;26.19;57.44;100298.55;1797671;78;21212;-53
2023/09/01 09:17:02;;;;;;;20.10;13.70;;;;;;;26.13;57.22;100300.48;1802744;78;21371;-54
2023/09/01 09:20:08;;;;;;;20.68;13.10;;;;;;;26.14;57.11;100306.41;1765347;80;21192;-53
2023/09/01 09:23:15;;;;;;;22.58;13.30;;;;;;;26.10;56.88;100311.45;1802650;78;21192;-53
2023/09/01 09:26:23;;;;;;;19.98;13.45;;;;;;;25.99;56.73;100306.34;1800981;79;21227;-54
2023/09/01 09:29:29;;;;;;;25.05;13.18;;;;;;;25.86;56.58;100301.84;1801014;79;21911;-52
2023/09/01 09:32:37;;;;;;;41.90;14.03;;;;;;;25.67;56.46;100295.06;1800352;79;21686;-51
2023/09/01 09:35:45;;;;;;;25.40;13.95;;;;;;;25.52;56.50;100301.47;1801534;79;21319;-47
2023/09/01 09:38:52;;;;;;;30.08;13.85;;;;;;;25.37;56.48;100286.56;1733483;82;21235;-51
2023/09/01 09:41:58;;;;;;;35.55;17.30;;;;;;;25.12;56.33;100298.45;1801961;79;21283;-50
2023/09/01 09:45:05;;;;;;;30.68;16.87;;;;;;;24.96;56.52;100317.16;1801554;79;21350;-51
2023/09/01 09:48:15;;;;;;;32.88;15.20;;;;;;;24.79;56.67;100320.70;1804822;78;21362;-50
2023/09/01 09:51:20;;;;;;;26.70;15.10;;;;;;;24.55;56.58;100303.11;1800335;78;21401;-50
2023/09/01 09:54:29;;;;;;;22.90;13.78;;;;;;;24.26;56.63;100312.40;1782740;78;21212;-50
2023/09/01 09:57:34;;;;;;;18.45;13.32;;;;;;;24.09;56.95;100321.48;1816274;78;21687;-49
2023/09/01 10:00:43;;;;;;;21.75;13.90;;;;;;;24.05;57.24;100326.48;1817937;78;21342;-51
2023/09/01 10:03:50;;;;;;;22.42;13.38;;;;;;;24.05;57.56;100335.73;1762617;81;21224;-48
2023/09/01 10:06:58;;;;;;;22.22;13.25;;;;;;;24.04;57.77;100331.22;1825571;78;21334;-48
2023/09/01 10:10:04;;;;;;;21.77;14.70;;;;;;;24.02;57.96;100327.87;1800919;78;21417;-48
2023/09/01 10:13:11;;;;;;;20.97;13.65;;;;;;;23.99;58.21;100320.55;1822446;78;21300;-48
2023/09/01 10:16:17;;;;;;;21.20;13.85;;;;;;;23.98;58.44;100314.66;1823854;78;21192;-48
2023/09/01 10:19:24;;;;;;;18.98;13.48;;;;;;;23.97;58.69;100304.59;1806045;78;21343;-48
2023/09/01 10:25:23;;;;;;;22.17;13.15;;;;;;;24.08;59.17;100311.42;1830909;76;27985;-48
2023/09/01 10:28:28;;;;;;;25.48;14.47;;;;;;;24.01;59.20;100302.38;1786193;79;21239;-48
2023/09/01 10:31:34;;;;;;;20.62;14.47;;;;;;;24.01;59.38;100309.38;1793349;79;21733;-49
2023/09/01 10:34:44;;;;;;;20.80;13.83;;;;;;;24.11;59.68;100303.03;1791068;79;21391;-48
2023/09/01 10:37:49;;;;;;;22.30;13.40;;;;;;;24.25;59.98;100307.92;1813464;78;21343;-48
2023/09/01 10:40:59;;;;;;;20.60;13.45;;;;;;;24.34;59.97;100296.52;1799528;78;21335;-49
2023/09/01 10:44:07;;;;;;;25.92;14.35;;;;;;;24.31;59.95;100286.44;1785845;79;21228;-49
2023/09/01 10:47:40;;;;;;;21.12;13.13;;;;;;;24.28;60.08;100292.55;1769164;80;21734;-48
2023/09/01 10:50:50;;;;;;;21.25;14.53;;;;;;;24.25;60.33;100293.94;1784710;79;21219;-49
2023/09/01 10:54:01;;;;;;;22.07;14.75;;;;;;;24.26;60.54;100273.23;1789461;79;21236;-49
2023/09/01 10:57:08;;;;;;;17.80;13.83;;;;;;;24.30;60.69;100268.80;1771662;79;21737;-47
2023/09/01 11:00:40;;;;;;;20.75;14.65;;;;;;;24.34;60.83;100267.72;1769287;80;21240;-47
2023/09/01 11:03:46;;;;;;;19.42;14.75;;;;;;;24.34;60.92;100271.33;1772539;79;21605;-46
2023/09/01 11:07:08;;;;;;;20.23;15.45;;;;;;;24.38;61.21;100271.10;1769903;79;21621;-47
2023/09/01 11:10:13;;;;;;;24.77;15.13;;;;;;;24.36;61.26;100262.12;1771925;80;21192;-46
2023/09/01 11:13:25;;;;;;;17.42;13.62;;;;;;;24.38;61.37;100239.46;1776858;79;21334;-47
2023/09/01 11:16:31;;;;;;;21.85;15.13;;;;;;;24.42;61.55;100250.42;1778255;79;21185;-46
2023/09/01 11:19:37;;;;;;;20.95;13.32;;;;;;;24.57;61.86;100249.96;1775278;79;21263;-47
2023/09/01 11:22:48;;;;;;;18.42;13.88;;;;;;;24.78;62.09;100260.18;1792036;79;21663;-46
2023/09/01 11:25:53;;;;;;;19.45;13.20;;;;;;;24.92;62.10;100272.61;1790593;79;21626;-48
2023/09/01 11:28:59;;;;;;;19.40;14.15;;;;;;;25.01;62.05;100265.36;1771189;80;21934;-48
2023/09/01 11:32:04;;;;;;;24.37;13.22;;;;;;;25.02;61.91;100283.02;1776264;79;21308;-48
2023/09/01 11:35:12;;;;;;;16.35;13.20;;;;;;;25.00;61.90;100308.51;1794301;77;21884;-48
2023/09/01 11:38:28;;;;;;;20.48;13.65;;;;;;;25.01;62.06;100315.78;1787670;79;21468;-47
2023/09/01 11:41:33;;;;;;;19.50;13.75;;;;;;;25.03;62.15;100309.36;1796548;79;21374;-48
2023/09/01 11:44:39;;;;;;;20.08;14.13;;;;;;;25.07;62.23;100311.03;1775079;80;21910;-48
2023/09/01 11:47:46;;;;;;;24.27;14.65;;;;;;;25.05;62.29;100316.09;1769982;80;21208;-47
2023/09/01 11:50:58;;;;;;;21.00;14.33;;;;;;;25.01;62.30;100304.58;1769780;79;21845;-47
2023/09/01 11:54:05;;;;;;;19.02;14.35;;;;;;;24.92;62.23;100296.42;1767636;79;21310;-47
2023/09/01 11:57:22;;;;;;;20.30;16.12;;;;;;;24.85;62.33;100296.34;1777804;79;21301;-47
2023/09/01 12:00:44;;;;;;;24.63;17.35;;;;;;;24.79;62.33;100312.30;1774052;79;21196;-48
2023/09/01 12:03:59;;;;;;;23.52;15.88;;;;;;;24.74;62.47;100337.45;1776182;79;21210;-47
2023/09/01 12:07:06;;;;;;;22.75;15.55;;;;;;;24.67;62.57;100355.03;1785216;79;21367;-48
2023/09/01 12:10:17;;;;;;;23.92;17.00;;;;;;;24.60;62.58;100351.61;1775921;79;21204;-49
2023/09/01 12:13:23;;;;;;;32.67;17.65;;;;;;;24.52;62.61;100343.70;1780549;79;21706;-46
2023/09/01 12:16:31;;;;;;;26.05;17.98;;;;;;;24.51;62.75;100353.22;1769016;80;21174;-46
2023/09/01 12:19:44;;;;;;;24.77;18.02;;;;;;;24.54;62.88;100360.23;1782189;79;21758;-47
2023/09/01 12:22:53;;;;;;;21.82;16.87;;;;;;;24.62;63.09;100373.19;1778035;79;21714;-48
2023/09/01 12:26:02;;;;;;;29.90;17.98;;;;;;;24.77;63.29;100373.32;1783910;79;21589;-47
2023/09/01 12:29:08;;;;;;;28.62;18.60;;;;;;;24.92;63.33;100368.39;1776133;79;21216;-47
2023/09/01 12:32:13;;;;;;;28.77;19.17;;;;;;;25.04;63.26;100369.02;1770737;79;21813;-47
2023/09/01 12:35:20;;;;;;;31.45;20.37;;;;;;;25.18;63.32;100369.40;1785271;79;21235;-47
2023/09/01 12:38:26;;;;;;;28.55;20.15;;;;;;;25.42;63.50;100383.30;1777809;79;21396;-46
2023/09/01 12:41:32;;;;;;;28.77;21.60;;;;;;;25.58;63.36;100401.31;1785748;79;21359;-48
2023/09/01 12:44:37;;;;;;;29.77;21.50;;;;;;;25.62;63.12;100397.41;1795956;79;21600;-48
2023/09/01 12:47:42;;;;;;;29.35;21.57;;;;;;;25.60;62.97;100392.63;1771184;80;21682;-46
2023/09/01 12:50:52;;;;;;;30.90;21.52;;;;;;;25.59;62.90;100393.75;1795680;79;21320;-48
2023/09/01 12:53:58;;;;;;;26.82;20.50;;;;;;;25.61;63.04;100388.72;1813238;78;21184;-47
2023/09/01 12:57:06;;;;;;;26.12;21.12;;;;;;;25.61;62.99;100384.52;1810726;78;21239;-47
2023/09/01 13:00:13;;;;;;;27.70;21.68;;;;;;;25.63;63.06;100388.72;1772004;79;21382;-49
2023/09/01 13:03:20;;;;;;;30.00;21.85;;;;;;;25.59;62.86;100383.94;1775308;79;21366;-54
2023/09/01 13:06:26;;;;;;;27.87;21.60;;;;;;;25.55;62.84;100383.63;1770282;79;21231;-54
2023/09/01 13:09:32;;;;;;;27.48;20.48;;;;;;;25.48;62.75;100371.81;1771812;80;21197;-54
2023/09/01 13:12:38;;;;;;;25.10;21.23;;;;;;;25.40;62.86;100371.51;1771272;80;21363;-54
2023/09/01 13:15:45;;;;;;;30.25;21.35;;;;;;;25.39;62.99;100372.05;1771556;80;21826;-53
2023/09/01 13:18:53;;;;;;;30.82;21.12;;;;;;;25.46;63.22;100378.82;1771255;80;21351;-54
2023/09/01 13:21:59;;;;;;;26.85;20.80;;;;;;;25.54;63.30;100385.31;1771150;80;21511;-54
2023/09/01 13:25:04;;;;;;;29.70;19.48;;;;;;;25.63;63.36;100390.12;1770853;79;21370;-54
2023/09/01 13:28:09;;;;;;;23.20;18.45;;;;;;;25.74;63.40;100400.81;1770921;80;21401;-58
2023/09/01 13:31:16;;;;;;;27.05;19.75;;;;;;;25.81;63.37;100405.62;1801204;79;21288;-54
2023/09/01 13:34:22;;;;;;;25.82;20.17;;;;;;;25.92;63.50;100407.34;1801425;79;21876;-54
2023/09/01 13:37:28;;;;;;;27.48;18.82;;;;;;;25.93;63.35;100409.87;1801852;79;21343;-54
2023/09/01 13:40:37;;;;;;;26.77;19.00;;;;;;;25.89;63.22;100408.75;1732360;82;21908;-53
2023/09/01 13:43:44;;;;;;;22.90;17.25;;;;;;;25.83;63.15;100418.81;1801782;79;22146;-54
2023/09/01 13:46:51;;;;;;;21.77;16.70;;;;;;;25.81;63.33;100416.29;1732205;83;21209;-54
2023/09/01 13:49:59;;;;;;;20.70;17.12;;;;;;;25.79;63.20;100404.48;1801248;79;21378;-54
2023/09/01 13:53:06;;;;;;;20.75;17.50;;;;;;;25.81;63.30;100402.27;1801676;79;21907;-54
2023/09/01 13:56:11;;;;;;;22.40;17.48;;;;;;;25.85;63.38;100394.11;1733292;83;21371;-53
2023/09/01 13:59:19;;;;;;;24.37;16.48;;;;;;;25.86;63.53;100397.22;1801982;79;21335;-53
2023/09/01 14:02:25;;;;;;;20.32;15.95;;;;;;;25.85;63.61;100394.11;1801812;79;21359;-53
2023/09/01 14:05:31;;;;;;;17.55;15.65;;;;;;;25.87;63.62;100396.09;1801919;79;21333;-54
2023/09/01 14:08:39;;;;;;;24.67;18.10;;;;;;;25.90;63.64;100396.39;1732587;82;21240;-54
2023/09/01 14:11:45;;;;;;;20.08;17.90;;;;;;;25.97;63.66;100404.55;1802077;79;21410;-54
2023/09/01 14:14:51;;;;;;;23.70;18.05;;;;;;;25.99;63.69;100407.94;1791874;78;21347;-54